createdAt,value
2023-04-25T00:01:55.786Z,6.32
2023-04-25T00:05:38.238Z,7.40
2023-04-25T00:09:20.051Z,7.07
2023-04-25T00:13:03.959Z,6.38
2023-04-25T00:16:45.748Z,6.90
2023-04-25T00:20:27.480Z,6.00
2023-04-25T00:24:09.249Z,6.72
2023-04-25T00:27:50.973Z,6.20
2023-04-25T00:31:32.781Z,5.60
2023-04-25T00:35:14.556Z,6.90
2023-04-25T00:38:56.812Z,7.18
2023-04-25T00:42:39.051Z,5.80
2023-04-25T00:46:20.889Z,6.28
2023-04-25T00:50:02.617Z,6.15
2023-04-25T00:53:45.941Z,5.95
2023-04-25T01:01:10.347Z,6.38
2023-04-25T01:04:52.107Z,6.90
2023-04-25T01:08:33.974Z,7.60
2023-04-25T01:12:15.803Z,7.13
2023-04-25T01:15:57.616Z,8.10
2023-04-25T01:19:39.557Z,7.00
2023-04-25T01:23:22.760Z,7.13
2023-04-25T01:27:04.748Z,7.32
2023-04-25T01:30:47.269Z,7.65
2023-04-25T01:34:29.056Z,7.63
2023-04-25T01:38:11.205Z,7.50
2023-04-25T01:41:53.100Z,6.28
2023-04-25T01:45:34.986Z,7.20
2023-04-25T01:49:16.713Z,6.63
2023-04-25T01:52:58.525Z,6.88
2023-04-25T01:56:41.257Z,6.68
2023-04-25T02:00:23.291Z,7.20
2023-04-25T02:04:05.496Z,7.32
2023-04-25T02:07:48.163Z,6.97
2023-04-25T02:11:29.845Z,6.30
2023-04-25T02:15:11.758Z,6.85
2023-04-25T02:18:53.806Z,7.50
2023-04-25T02:22:36.432Z,6.05
2023-04-25T02:26:18.368Z,5.88
2023-04-25T02:30:00.052Z,5.28
2023-04-25T02:33:41.795Z,5.05
2023-04-25T02:37:23.487Z,6.55
2023-04-25T02:41:05.629Z,5.15
2023-04-25T02:44:47.344Z,4.72
2023-04-25T02:48:30.353Z,5.28
2023-04-25T02:52:12.488Z,4.88
2023-04-25T02:55:54.333Z,5.15
2023-04-25T02:59:36.231Z,6.93
2023-04-25T03:03:19.194Z,5.55
2023-04-25T03:07:05.003Z,4.78
2023-04-25T03:10:46.911Z,4.95
2023-04-25T03:14:28.631Z,4.22
2023-04-25T03:18:10.415Z,4.40
2023-04-25T03:21:52.152Z,4.20
2023-04-25T03:25:33.845Z,5.80
2023-04-25T03:29:15.678Z,5.15
2023-04-25T03:32:57.411Z,5.25
2023-04-25T03:36:40.503Z,5.00
2023-04-25T03:40:23.613Z,4.10
2023-04-25T03:44:05.350Z,5.05
2023-04-25T03:47:47.112Z,5.18
2023-04-25T03:51:28.967Z,4.10
2023-04-25T03:55:11.374Z,4.75
2023-04-25T03:58:53.141Z,4.80
2023-04-25T04:02:36.073Z,4.43
2023-04-25T04:06:17.969Z,4.70
2023-04-25T04:10:00.300Z,4.25
2023-04-25T04:13:42.053Z,4.30
2023-04-25T04:17:23.783Z,4.60
2023-04-25T04:21:05.665Z,5.95
2023-04-25T04:24:47.587Z,4.95
2023-04-25T04:28:29.349Z,4.40
2023-04-25T04:32:11.086Z,4.90
2023-04-25T04:35:54.418Z,3.97
2023-04-25T04:43:18.138Z,4.30
2023-04-25T04:47:00.582Z,5.22
2023-04-25T04:50:46.585Z,4.43
2023-04-25T04:54:28.336Z,4.68
2023-04-25T04:58:10.286Z,4.35
2023-04-25T05:01:51.966Z,4.30
2023-04-25T05:05:33.873Z,4.55
2023-04-25T05:09:16.205Z,4.20
2023-04-25T05:12:57.973Z,4.28
2023-04-25T05:16:39.777Z,4.78
2023-04-25T05:20:21.506Z,4.28
2023-04-25T05:24:03.358Z,4.07
2023-04-25T05:27:45.132Z,4.80
2023-04-25T05:31:27.337Z,5.28
2023-04-25T05:35:09.983Z,4.65
2023-04-25T05:38:51.721Z,5.03
2023-04-25T05:42:33.794Z,5.32
2023-04-25T05:46:16.582Z,5.30
2023-04-25T05:49:58.329Z,5.18
2023-04-25T05:53:40.036Z,5.95
2023-04-25T05:57:25.769Z,5.18
2023-04-25T06:01:07.557Z,5.13
2023-04-25T06:04:51.918Z,4.63
2023-04-25T06:08:33.976Z,7.63
2023-04-25T06:12:15.885Z,4.97
2023-04-25T06:15:57.648Z,4.43
2023-04-25T06:19:39.372Z,4.65
2023-04-25T06:23:21.433Z,5.75
2023-04-25T06:27:03.631Z,4.63
2023-04-25T06:30:45.830Z,4.85
2023-04-25T06:34:27.533Z,4.00
2023-04-25T06:38:09.983Z,5.10
2023-04-25T06:41:51.886Z,4.53
2023-04-25T06:45:33.632Z,4.40
2023-04-25T06:49:15.352Z,4.82
2023-04-25T06:52:57.043Z,4.40
2023-04-25T06:56:38.879Z,4.00
2023-04-25T07:00:21.104Z,4.93
2023-04-25T07:04:03.184Z,4.20
2023-04-25T07:07:45.312Z,4.43
2023-04-25T07:11:27.203Z,4.40
2023-04-25T07:15:11.057Z,4.72
2023-04-25T07:18:52.942Z,3.83
2023-04-25T07:22:34.835Z,3.78
2023-04-25T07:26:16.545Z,3.95
2023-04-25T07:29:58.503Z,4.25
2023-04-25T07:33:40.384Z,4.05
2023-04-25T07:37:22.177Z,3.28
2023-04-25T07:41:03.914Z,3.47
2023-04-25T07:44:45.947Z,3.72
2023-04-25T07:48:27.683Z,4.50
2023-04-25T07:52:09.408Z,4.25
2023-04-25T07:55:51.638Z,4.00
2023-04-25T07:59:33.694Z,4.13
2023-04-25T08:03:15.960Z,3.80
2023-04-25T08:06:57.898Z,3.30
2023-04-25T08:10:39.638Z,3.40
2023-04-25T08:14:21.473Z,3.65
2023-04-25T08:18:03.634Z,3.33
2023-04-25T08:21:45.411Z,2.60
2023-04-25T08:25:27.184Z,3.40
2023-04-25T08:29:08.959Z,2.90
2023-04-25T08:32:50.947Z,2.90
2023-04-25T08:36:39.419Z,2.83
2023-04-25T08:40:29.779Z,2.65
2023-04-25T08:44:12.300Z,3.05
2023-04-25T08:47:54.934Z,3.30
2023-04-25T08:51:44.077Z,3.20
2023-04-25T08:55:27.175Z,2.60
2023-04-25T08:59:09.319Z,2.67
2023-04-25T09:02:51.670Z,2.75
2023-04-25T09:06:35.720Z,3.03
2023-04-25T09:10:17.486Z,2.67
2023-04-25T09:14:16.757Z,2.92
2023-04-25T09:17:59.546Z,2.90
2023-04-25T09:21:41.308Z,2.92
2023-04-25T09:25:23.406Z,2.50
2023-04-25T09:29:08.786Z,2.67
2023-04-25T09:32:50.573Z,2.30
2023-04-25T09:36:32.735Z,2.35
2023-04-25T09:40:14.551Z,2.58
2023-04-25T09:44:00.074Z,3.47
2023-04-25T09:47:44.874Z,3.05
2023-04-25T09:51:28.866Z,2.70
2023-04-25T09:55:10.908Z,2.53
2023-04-25T09:58:55.946Z,2.97
2023-04-25T10:02:40.455Z,3.08
2023-04-25T10:06:24.115Z,2.08
2023-04-25T10:10:06.952Z,2.40
2023-04-25T10:13:49.274Z,2.03
2023-04-25T10:17:32.533Z,2.30
2023-04-25T10:29:00.796Z,2.00
2023-04-25T10:32:46.722Z,2.45
2023-04-25T10:36:33.350Z,1.92
2023-04-25T10:40:22.347Z,1.90
2023-04-25T10:44:05.484Z,2.08
2023-04-25T10:47:47.653Z,2.17
2023-04-25T10:51:47.238Z,1.95
2023-04-25T10:55:50.992Z,2.00
2023-04-25T10:59:32.912Z,1.83
2023-04-25T11:03:17.952Z,1.75
2023-04-25T11:11:07.414Z,1.75
2023-04-25T11:14:37.937Z,2.03
2023-04-25T11:14:49.119Z,2.22
2023-04-25T11:18:31.052Z,2.42
2023-04-25T11:22:13.503Z,2.83
2023-04-25T11:25:55.288Z,2.00
2023-04-25T11:29:37.098Z,2.08
2023-04-25T11:33:19.038Z,1.92
2023-04-25T11:37:02.882Z,2.70
2023-04-25T11:40:44.962Z,2.20
2023-04-25T11:44:27.026Z,2.00
2023-04-25T11:48:08.799Z,2.00
2023-04-25T11:51:50.596Z,1.73
2023-04-25T11:55:32.612Z,2.00
2023-04-25T11:59:14.759Z,2.08
2023-04-25T12:03:01.070Z,2.55
2023-04-25T12:06:45.181Z,2.33
2023-04-25T12:10:27.138Z,2.13
2023-04-25T12:14:08.929Z,1.95
2023-04-25T12:17:52.878Z,1.80
2023-04-25T12:21:38.828Z,2.10
2023-04-25T12:25:47.958Z,1.90
2023-04-25T12:29:41.969Z,2.17
2023-04-25T12:33:32.077Z,2.30
2023-04-25T12:37:14.192Z,2.35
2023-04-25T12:40:56.377Z,2.10
2023-04-25T12:44:38.815Z,2.45
2023-04-25T12:48:21.448Z,2.43
2023-04-25T12:52:03.330Z,2.30
2023-04-25T12:55:47.058Z,2.40
2023-04-25T12:59:29.329Z,2.40
2023-04-25T13:03:14.722Z,2.33
2023-04-25T13:06:56.659Z,2.50
2023-04-25T13:10:40.124Z,2.13
2023-04-25T13:14:22.101Z,2.88
2023-04-25T13:18:06.482Z,3.03
2023-04-25T13:21:48.353Z,2.20
2023-04-25T13:25:30.140Z,2.13
2023-04-25T13:29:11.852Z,2.22
2023-04-25T13:32:53.770Z,2.10
2023-04-25T13:36:35.657Z,2.30
2023-04-25T13:40:20.550Z,1.92
2023-04-25T13:44:02.422Z,2.00
2023-04-25T13:47:44.216Z,2.15
2023-04-25T13:51:26.910Z,2.28
2023-04-25T13:55:09.583Z,2.40
2023-04-25T13:58:52.765Z,2.78
2023-04-25T14:06:22.148Z,2.72
2023-04-25T14:10:06.337Z,2.17
2023-04-25T14:13:50.182Z,1.92
2023-04-25T14:17:32.320Z,2.67
2023-04-25T14:21:14.190Z,2.03
2023-04-25T14:24:55.958Z,2.10
2023-04-25T14:28:37.667Z,2.60
2023-04-25T14:32:19.501Z,2.30
2023-04-25T14:36:01.262Z,2.17
2023-04-25T14:39:44.678Z,2.47
2023-04-25T14:43:27.000Z,2.15
2023-04-25T14:47:08.844Z,2.15
2023-04-25T14:50:50.806Z,2.30
2023-04-25T14:54:33.233Z,2.03
2023-04-25T14:58:15.016Z,2.80
2023-04-25T15:01:59.458Z,2.13
2023-04-25T15:05:41.748Z,2.17
2023-04-25T15:09:25.046Z,2.10
2023-04-25T15:13:06.918Z,1.92
2023-04-25T15:16:48.716Z,2.33
2023-04-25T15:20:30.700Z,1.83
2023-04-25T15:24:12.425Z,2.10
2023-04-25T15:27:54.491Z,1.83
2023-04-25T15:31:36.763Z,2.03
2023-04-25T15:35:18.535Z,2.10
2023-04-25T15:39:00.265Z,2.63
2023-04-25T15:42:44.837Z,3.58
2023-04-25T15:46:26.829Z,2.33
2023-04-25T15:50:09.488Z,2.47
2023-04-25T15:53:51.381Z,2.40
2023-04-25T15:57:37.322Z,2.70
2023-04-25T16:01:19.168Z,2.05
2023-04-25T16:05:01.410Z,2.63
2023-04-25T16:08:43.329Z,2.40
2023-04-25T16:12:25.239Z,2.65
2023-04-25T16:16:07.266Z,2.25
2023-04-25T16:19:50.317Z,2.60
2023-04-25T16:23:32.232Z,2.45
2023-04-25T16:27:14.711Z,2.15
2023-04-25T16:30:56.653Z,2.88
2023-04-25T16:34:38.727Z,2.67
2023-04-25T16:38:20.571Z,2.60
2023-04-25T16:42:04.610Z,3.13
2023-04-25T16:45:46.645Z,3.10
2023-04-25T16:49:28.706Z,2.50
2023-04-25T16:53:10.636Z,3.50
2023-04-25T16:56:52.554Z,3.25
2023-04-25T17:00:34.584Z,3.55
2023-04-25T17:04:16.452Z,3.13
2023-04-25T17:07:58.277Z,3.28
2023-04-25T17:11:40.043Z,3.08
2023-04-25T17:15:21.810Z,3.45
2023-04-25T17:19:07.480Z,2.40
2023-04-25T17:22:49.743Z,2.47
2023-04-25T17:26:31.470Z,3.30
2023-04-25T17:30:14.084Z,3.20
2023-04-25T17:33:55.891Z,2.95
2023-04-25T17:37:38.142Z,4.13
2023-04-25T17:41:20.852Z,4.47
2023-04-25T17:45:02.630Z,2.70
2023-04-25T17:48:44.404Z,3.08
2023-04-25T17:52:26.380Z,3.33
2023-04-25T17:56:19.817Z,2.40
2023-04-25T18:00:09.317Z,2.60
2023-04-25T18:03:52.315Z,2.60
2023-04-25T18:11:15.998Z,3.03
2023-04-25T18:14:57.688Z,2.70
2023-04-25T18:18:42.999Z,2.85
2023-04-25T18:22:24.780Z,3.45
2023-04-25T18:26:06.743Z,2.95
2023-04-25T18:29:48.471Z,3.50
2023-04-25T18:33:31.520Z,3.20
2023-04-25T18:37:14.280Z,4.03
2023-04-25T18:41:00.114Z,4.18
2023-04-25T18:44:47.731Z,4.45
2023-04-25T18:48:29.414Z,4.55
2023-04-25T18:52:12.827Z,4.68
2023-04-25T18:55:54.641Z,4.43
2023-04-25T18:59:36.426Z,4.25
2023-04-25T19:03:18.557Z,4.00
2023-04-25T19:07:00.500Z,3.60
2023-04-25T19:10:42.225Z,3.80
2023-04-25T19:14:24.167Z,4.07
2023-04-25T19:18:06.022Z,11.85
2023-04-25T19:21:50.271Z,14.10
2023-04-25T19:25:32.154Z,7.65
2023-04-25T19:29:15.179Z,5.07
2023-04-25T19:32:57.381Z,4.93
2023-04-25T19:36:41.032Z,4.70
2023-04-25T19:40:23.425Z,4.18
2023-04-25T19:44:09.043Z,3.60
2023-04-25T19:47:50.956Z,3.83
2023-04-25T19:51:33.348Z,3.28
2023-04-25T19:55:15.360Z,2.93
2023-04-25T19:59:00.350Z,2.85
2023-04-25T20:02:45.303Z,3.40
2023-04-25T20:06:28.881Z,3.42
2023-04-25T20:10:15.673Z,3.58
2023-04-25T20:13:57.530Z,3.95
2023-04-25T20:17:41.609Z,3.70
2023-04-25T20:21:23.873Z,4.22
2023-04-25T20:25:07.081Z,4.03
2023-04-25T20:28:48.955Z,3.85
2023-04-25T20:32:34.334Z,4.47
2023-04-25T20:36:16.163Z,5.38
2023-04-25T20:40:03.629Z,4.53
2023-04-25T20:44:23.675Z,4.15
2023-04-25T20:48:42.876Z,3.42
2023-04-25T20:52:24.701Z,3.63
2023-04-25T20:56:06.566Z,4.15
2023-04-25T20:59:48.989Z,3.92
2023-04-25T21:03:33.800Z,3.95
2023-04-25T21:07:15.832Z,3.65
2023-04-25T21:10:57.675Z,4.95
2023-04-25T21:14:39.356Z,5.03
2023-04-25T21:18:21.324Z,6.50
2023-04-25T21:22:03.677Z,4.75
2023-04-25T21:25:45.556Z,5.32
2023-04-25T21:29:27.396Z,5.50
2023-04-25T21:33:09.245Z,4.15
2023-04-25T21:36:51.033Z,4.85
2023-04-25T21:40:32.997Z,4.75
2023-04-25T21:44:17.373Z,4.22
2023-04-25T21:48:05.828Z,3.70
2023-04-25T21:51:50.715Z,4.10
2023-04-25T21:55:42.734Z,5.15
2023-04-25T21:59:28.421Z,4.50
2023-04-25T22:03:15.612Z,4.38
2023-04-25T22:06:59.764Z,5.00
2023-04-25T22:10:45.558Z,4.25
2023-04-25T22:14:32.634Z,4.72
2023-04-25T22:18:24.592Z,4.55
2023-04-25T22:22:07.691Z,4.60
2023-04-25T22:25:52.511Z,5.72
2023-04-25T22:29:38.668Z,4.22
2023-04-25T22:33:22.098Z,4.10
2023-04-25T22:40:53.002Z,3.50
2023-04-25T22:48:19.925Z,3.72
2023-04-25T22:52:10.337Z,3.38
2023-04-25T22:56:00.879Z,3.63
2023-04-25T22:59:48.005Z,3.42
2023-04-25T23:03:35.315Z,3.83
2023-04-25T23:07:19.228Z,3.40
2023-04-25T23:11:10.364Z,3.85
2023-04-25T23:14:54.284Z,3.40
2023-04-25T23:18:42.520Z,3.45
2023-04-25T23:22:27.996Z,3.47
2023-04-25T23:26:16.524Z,4.28
2023-04-25T23:30:02.297Z,3.72
2023-04-25T23:33:45.012Z,3.45
2023-04-25T23:37:26.789Z,3.80
2023-04-25T23:41:08.547Z,4.03
2023-04-25T23:44:50.247Z,3.90
2023-04-25T23:48:32.137Z,4.57
2023-04-25T23:52:13.936Z,4.32
2023-04-25T23:55:55.637Z,4.80
2023-04-25T23:59:37.332Z,4.90
